Weather at Stuart Creek Airport

Public forecast

Using degrees Celsius for public forecast. Weather courtesy of forecast.io.

Closest aviation weather report (METAR) to Stuart Creek Airport

Closest report is Olympic Dam Airport, 47.1 nm (87.3 km) SSW. Retrieved 2021/06/13 17:00 UTC (10 minutes ago):

YOLD 131700Z AUTO 05008KT 9999 // BKN075 OVC097 13/06 Q1011

Closest aviation forecast (TAF) to Stuart Creek Airport

Closest forecast is Woomera Airfield, 86.6 nm (160.5 km) S. Retrieved 2021/06/13 12:00 UTC (5 hours ago):

TAF YPWR 131120Z 1312/1406 02010KT 9999 -SHRA FEW050 FM131500 02008KT 9999 -SHRA SCT050 FM132300 36008KT 9999 -SHRA FEW015 SCT020 BKN035